Dati Storici

Data ora Umidita' aria (%) Temperatura aria (°C) Rad globale (W/m²) Gonioanemometro (°) Tacoanemometro (m/s) Pioggia (mm)
15-10-2012 10:00 85.1 % 14.695 166.557 93.116 0.78 0
15-10-2012 09:50 85.6 % 14.462 132.814 81.022 0.868 0
15-10-2012 09:40 85.7 % 14.3 83.764 52.603 1.77 0
15-10-2012 09:30 85.6 % 14.19 72.235 40.99 2.078 0
15-10-2012 09:20 85.5 % 14.135 96.48 62.762 2.111 0
15-10-2012 09:10 85.5 % 14.036 77.173 26.336 3.096 0
15-10-2012 09:00 85.6 % 14.071 57.03 39.072 0.991 0
15-10-2012 08:50 85.9 % 14.021 54.864 41.629 0.892 0
15-10-2012 08:40 86.1 % 13.939 49.992 42.982 0.602 0
15-10-2012 08:30 86.3 % 13.788 62.988 50.254 1.698 0
15-10-2012 08:20 86.7 % 13.664 77.136 62.365 2.228 0
15-10-2012 08:10 87.3 % 13.43 88.543 351.544 1.677 0
15-10-2012 08:00 88.4 % 13.206 53.812 10.304 2.057 0
15-10-2012 07:50 89 % 13.088 31.383 45.294 1.82 0
15-10-2012 07:40 89.4 % 12.986 14.053 351.482 1.242 0
15-10-2012 07:30 89.9 % 12.928 7.188 3.863 1.393 0
15-10-2012 07:20 90.3 % 12.87 4.832 1.129 1.115 0
15-10-2012 07:10 90.5 % 12.771 4.063 5.925 1.164 0
15-10-2012 07:00 90.6 % 12.754 4.012 1.138 0.782 0
15-10-2012 06:50 90.7 % 12.78 4.05 16.158 1.378 0

I dati sono presentati in modo automatico a scopo informativo. In seguito a verifica i dati possono subire modifiche o essere invalidati e non riportati negli archivi definitivi.